sensor_id;sensor_type;location;lat;lon;timestamp;temperature;humidity
32753;DHT22;19121;52.428;10.816;2023-07-31T00:01:26;24.60;53.80
32753;DHT22;19121;52.428;10.816;2023-07-31T00:03:51;24.60;53.80
32753;DHT22;19121;52.428;10.816;2023-07-31T00:06:17;24.60;53.80
32753;DHT22;19121;52.428;10.816;2023-07-31T00:08:42;24.60;53.80
32753;DHT22;19121;52.428;10.816;2023-07-31T00:11:08;24.60;53.80
32753;DHT22;19121;52.428;10.816;2023-07-31T00:13:33;24.60;53.80
32753;DHT22;19121;52.428;10.816;2023-07-31T00:15:59;24.60;53.80
32753;DHT22;19121;52.428;10.816;2023-07-31T00:18:24;24.60;53.80
32753;DHT22;19121;52.428;10.816;2023-07-31T00:20:50;24.60;53.80
32753;DHT22;19121;52.428;10.816;2023-07-31T00:23:15;24.50;53.80
32753;DHT22;19121;52.428;10.816;2023-07-31T00:25:41;24.50;53.80
32753;DHT22;19121;52.428;10.816;2023-07-31T00:28:06;24.50;53.70
32753;DHT22;19121;52.428;10.816;2023-07-31T00:30:32;24.50;53.80
32753;DHT22;19121;52.428;10.816;2023-07-31T00:32:57;24.60;53.80
32753;DHT22;19121;52.428;10.816;2023-07-31T00:35:23;24.50;53.70
32753;DHT22;19121;52.428;10.816;2023-07-31T00:37:48;24.50;53.80
32753;DHT22;19121;52.428;10.816;2023-07-31T00:40:14;24.50;53.80
32753;DHT22;19121;52.428;10.816;2023-07-31T00:42:39;24.50;53.80
32753;DHT22;19121;52.428;10.816;2023-07-31T00:45:05;24.50;53.70
32753;DHT22;19121;52.428;10.816;2023-07-31T00:47:30;24.50;53.80
32753;DHT22;19121;52.428;10.816;2023-07-31T00:49:56;24.50;53.80
32753;DHT22;19121;52.428;10.816;2023-07-31T00:52:21;24.50;53.80
32753;DHT22;19121;52.428;10.816;2023-07-31T00:54:47;24.50;53.70
32753;DHT22;19121;52.428;10.816;2023-07-31T00:57:13;24.50;53.80
32753;DHT22;19121;52.428;10.816;2023-07-31T00:59:39;24.50;53.80
32753;DHT22;19121;52.428;10.816;2023-07-31T01:02:04;24.50;53.80
32753;DHT22;19121;52.428;10.816;2023-07-31T01:04:30;24.50;53.70
32753;DHT22;19121;52.428;10.816;2023-07-31T01:07:03;24.50;53.80
32753;DHT22;19121;52.428;10.816;2023-07-31T01:09:36;24.50;53.80
32753;DHT22;19121;52.428;10.816;2023-07-31T01:12:04;24.50;53.80
32753;DHT22;19121;52.428;10.816;2023-07-31T01:14:31;24.50;53.80
32753;DHT22;19121;52.428;10.816;2023-07-31T01:16:57;24.50;53.80
32753;DHT22;19121;52.428;10.816;2023-07-31T01:19:23;24.40;53.80
32753;DHT22;19121;52.428;10.816;2023-07-31T01:24:30;24.40;53.80
32753;DHT22;19121;52.428;10.816;2023-07-31T01:27:04;24.40;53.80
32753;DHT22;19121;52.428;10.816;2023-07-31T01:29:47;24.40;53.80
32753;DHT22;19121;52.428;10.816;2023-07-31T01:32:14;24.40;53.80
32753;DHT22;19121;52.428;10.816;2023-07-31T01:34:40;24.40;53.80
32753;DHT22;19121;52.428;10.816;2023-07-31T01:37:06;24.40;53.80
32753;DHT22;19121;52.428;10.816;2023-07-31T01:39:31;24.40;53.80
32753;DHT22;19121;52.428;10.816;2023-07-31T01:41:57;24.40;53.80
32753;DHT22;19121;52.428;10.816;2023-07-31T01:44:22;24.40;53.80
32753;DHT22;19121;52.428;10.816;2023-07-31T01:46:48;24.40;53.80
32753;DHT22;19121;52.428;10.816;2023-07-31T01:49:13;24.40;53.80
32753;DHT22;19121;52.428;10.816;2023-07-31T01:51:38;24.40;53.80
32753;DHT22;19121;52.428;10.816;2023-07-31T01:54:04;24.40;53.80
32753;DHT22;19121;52.428;10.816;2023-07-31T01:56:30;24.40;53.90
32753;DHT22;19121;52.428;10.816;2023-07-31T01:58:55;24.40;53.90
32753;DHT22;19121;52.428;10.816;2023-07-31T02:01:21;24.30;53.80
32753;DHT22;19121;52.428;10.816;2023-07-31T02:03:46;24.40;53.90
32753;DHT22;19121;52.428;10.816;2023-07-31T02:06:12;24.30;53.80
32753;DHT22;19121;52.428;10.816;2023-07-31T02:08:37;24.30;53.80
32753;DHT22;19121;52.428;10.816;2023-07-31T02:11:03;24.30;53.80
32753;DHT22;19121;52.428;10.816;2023-07-31T02:13:28;24.30;53.80
32753;DHT22;19121;52.428;10.816;2023-07-31T02:15:53;24.40;53.90
32753;DHT22;19121;52.428;10.816;2023-07-31T02:18:19;24.30;53.80
32753;DHT22;19121;52.428;10.816;2023-07-31T02:20:49;24.30;53.80
32753;DHT22;19121;52.428;10.816;2023-07-31T02:23:14;24.30;53.80
32753;DHT22;19121;52.428;10.816;2023-07-31T02:25:39;24.30;54.20
32753;DHT22;19121;52.428;10.816;2023-07-31T02:28:05;24.30;53.90
32753;DHT22;19121;52.428;10.816;2023-07-31T02:30:30;24.30;53.80
32753;DHT22;19121;52.428;10.816;2023-07-31T02:32:56;24.30;53.90
32753;DHT22;19121;52.428;10.816;2023-07-31T02:35:21;24.30;53.90
32753;DHT22;19121;52.428;10.816;2023-07-31T02:37:46;24.30;53.90
32753;DHT22;19121;52.428;10.816;2023-07-31T02:40:12;24.30;53.90
32753;DHT22;19121;52.428;10.816;2023-07-31T02:42:37;24.30;53.90
32753;DHT22;19121;52.428;10.816;2023-07-31T02:45:03;24.30;53.90
32753;DHT22;19121;52.428;10.816;2023-07-31T02:47:28;24.20;53.80
32753;DHT22;19121;52.428;10.816;2023-07-31T02:49:54;24.20;53.90
32753;DHT22;19121;52.428;10.816;2023-07-31T02:52:19;24.20;53.80
32753;DHT22;19121;52.428;10.816;2023-07-31T02:54:45;24.20;53.80
32753;DHT22;19121;52.428;10.816;2023-07-31T02:57:10;24.20;53.90
32753;DHT22;19121;52.428;10.816;2023-07-31T02:59:35;24.20;53.90
32753;DHT22;19121;52.428;10.816;2023-07-31T03:02:01;24.20;53.90
32753;DHT22;19121;52.428;10.816;2023-07-31T03:04:26;24.20;53.90
32753;DHT22;19121;52.428;10.816;2023-07-31T03:06:52;24.20;53.90
32753;DHT22;19121;52.428;10.816;2023-07-31T03:09:17;24.20;53.90
32753;DHT22;19121;52.428;10.816;2023-07-31T03:11:43;24.20;53.90
32753;DHT22;19121;52.428;10.816;2023-07-31T03:14:08;24.20;54.00
32753;DHT22;19121;52.428;10.816;2023-07-31T03:16:33;24.20;54.00
32753;DHT22;19121;52.428;10.816;2023-07-31T03:18:59;24.20;54.00
32753;DHT22;19121;52.428;10.816;2023-07-31T03:21:24;24.20;54.00
32753;DHT22;19121;52.428;10.816;2023-07-31T03:23:50;24.20;54.00
32753;DHT22;19121;52.428;10.816;2023-07-31T03:26:15;24.20;54.00
32753;DHT22;19121;52.428;10.816;2023-07-31T03:28:40;24.20;54.00
32753;DHT22;19121;52.428;10.816;2023-07-31T03:31:06;24.20;54.00
32753;DHT22;19121;52.428;10.816;2023-07-31T03:33:33;24.20;54.00
32753;DHT22;19121;52.428;10.816;2023-07-31T03:35:59;24.20;54.00
32753;DHT22;19121;52.428;10.816;2023-07-31T03:38:24;24.10;54.00
32753;DHT22;19121;52.428;10.816;2023-07-31T03:40:49;24.20;54.00
32753;DHT22;19121;52.428;10.816;2023-07-31T03:43:15;24.10;54.00
32753;DHT22;19121;52.428;10.816;2023-07-31T03:45:40;24.20;54.00
32753;DHT22;19121;52.428;10.816;2023-07-31T03:48:06;24.10;54.00
32753;DHT22;19121;52.428;10.816;2023-07-31T03:50:33;24.10;54.00
32753;DHT22;19121;52.428;10.816;2023-07-31T03:52:58;24.10;54.00
32753;DHT22;19121;52.428;10.816;2023-07-31T03:55:23;24.10;54.00
32753;DHT22;19121;52.428;10.816;2023-07-31T03:57:49;24.10;54.00
32753;DHT22;19121;52.428;10.816;2023-07-31T04:00:14;24.10;54.00
32753;DHT22;19121;52.428;10.816;2023-07-31T04:02:40;24.10;54.00
32753;DHT22;19121;52.428;10.816;2023-07-31T04:05:07;24.10;54.00
32753;DHT22;19121;52.428;10.816;2023-07-31T04:07:32;24.10;54.00
32753;DHT22;19121;52.428;10.816;2023-07-31T04:09:58;24.10;54.00
32753;DHT22;19121;52.428;10.816;2023-07-31T04:12:23;24.10;54.00
32753;DHT22;19121;52.428;10.816;2023-07-31T04:14:49;24.10;54.00
32753;DHT22;19121;52.428;10.816;2023-07-31T04:17:14;24.10;54.10
32753;DHT22;19121;52.428;10.816;2023-07-31T04:19:40;24.10;54.00
32753;DHT22;19121;52.428;10.816;2023-07-31T04:22:05;24.10;54.00
32753;DHT22;19121;52.428;10.816;2023-07-31T04:24:30;24.10;54.10
32753;DHT22;19121;52.428;10.816;2023-07-31T04:26:56;24.10;54.10
32753;DHT22;19121;52.428;10.816;2023-07-31T04:29:21;24.10;54.00
32753;DHT22;19121;52.428;10.816;2023-07-31T04:31:47;24.10;54.00
32753;DHT22;19121;52.428;10.816;2023-07-31T04:34:13;24.10;54.10
32753;DHT22;19121;52.428;10.816;2023-07-31T04:36:38;24.10;54.00
32753;DHT22;19121;52.428;10.816;2023-07-31T04:39:03;24.10;54.20
32753;DHT22;19121;52.428;10.816;2023-07-31T04:41:29;24.10;54.70
32753;DHT22;19121;52.428;10.816;2023-07-31T04:43:54;24.00;54.10
32753;DHT22;19121;52.428;10.816;2023-07-31T04:46:20;24.10;54.10
32753;DHT22;19121;52.428;10.816;2023-07-31T04:48:45;24.00;54.10
32753;DHT22;19121;52.428;10.816;2023-07-31T04:51:11;24.00;54.10
32753;DHT22;19121;52.428;10.816;2023-07-31T04:53:36;24.00;54.10
32753;DHT22;19121;52.428;10.816;2023-07-31T04:56:02;24.00;54.10
32753;DHT22;19121;52.428;10.816;2023-07-31T04:58:27;24.10;54.10
32753;DHT22;19121;52.428;10.816;2023-07-31T05:00:53;24.00;54.20
32753;DHT22;19121;52.428;10.816;2023-07-31T05:03:18;24.00;54.20
32753;DHT22;19121;52.428;10.816;2023-07-31T05:05:43;24.00;54.10
32753;DHT22;19121;52.428;10.816;2023-07-31T05:08:09;24.00;54.10
32753;DHT22;19121;52.428;10.816;2023-07-31T05:10:34;24.00;54.20
32753;DHT22;19121;52.428;10.816;2023-07-31T05:13:00;24.00;54.20
32753;DHT22;19121;52.428;10.816;2023-07-31T05:15:25;24.00;54.20
32753;DHT22;19121;52.428;10.816;2023-07-31T05:17:51;24.10;54.30
32753;DHT22;19121;52.428;10.816;2023-07-31T05:20:16;24.00;54.20
32753;DHT22;19121;52.428;10.816;2023-07-31T05:22:42;24.00;54.20
32753;DHT22;19121;52.428;10.816;2023-07-31T05:25:07;24.00;54.20
32753;DHT22;19121;52.428;10.816;2023-07-31T05:27:33;24.00;54.20
32753;DHT22;19121;52.428;10.816;2023-07-31T05:29:58;24.00;54.20
32753;DHT22;19121;52.428;10.816;2023-07-31T05:32:23;24.00;54.20
32753;DHT22;19121;52.428;10.816;2023-07-31T05:34:52;24.00;54.20
32753;DHT22;19121;52.428;10.816;2023-07-31T05:37:18;24.00;54.30
32753;DHT22;19121;52.428;10.816;2023-07-31T05:39:43;24.00;54.20
32753;DHT22;19121;52.428;10.816;2023-07-31T05:42:09;24.00;54.20
32753;DHT22;19121;52.428;10.816;2023-07-31T05:44:34;24.00;54.60
32753;DHT22;19121;52.428;10.816;2023-07-31T05:47:00;24.00;54.70
32753;DHT22;19121;52.428;10.816;2023-07-31T05:49:25;24.00;54.80
32753;DHT22;19121;52.428;10.816;2023-07-31T05:51:51;24.00;54.70
32753;DHT22;19121;52.428;10.816;2023-07-31T05:54:16;24.00;54.60
32753;DHT22;19121;52.428;10.816;2023-07-31T05:56:41;24.00;54.80
32753;DHT22;19121;52.428;10.816;2023-07-31T05:59:08;24.00;54.80
32753;DHT22;19121;52.428;10.816;2023-07-31T06:01:34;24.00;55.20
32753;DHT22;19121;52.428;10.816;2023-07-31T06:03:59;24.00;55.20
32753;DHT22;19121;52.428;10.816;2023-07-31T06:06:24;24.00;55.40
32753;DHT22;19121;52.428;10.816;2023-07-31T06:08:50;24.00;55.50
32753;DHT22;19121;52.428;10.816;2023-07-31T06:11:15;24.00;55.40
32753;DHT22;19121;52.428;10.816;2023-07-31T06:13:41;24.00;55.40
32753;DHT22;19121;52.428;10.816;2023-07-31T06:16:06;24.10;55.40
32753;DHT22;19121;52.428;10.816;2023-07-31T06:18:32;24.10;55.30
32753;DHT22;19121;52.428;10.816;2023-07-31T06:20:57;24.00;55.40
32753;DHT22;19121;52.428;10.816;2023-07-31T06:23:23;24.10;55.40
32753;DHT22;19121;52.428;10.816;2023-07-31T06:25:48;24.00;55.40
32753;DHT22;19121;52.428;10.816;2023-07-31T06:28:14;24.10;55.50
32753;DHT22;19121;52.428;10.816;2023-07-31T06:30:39;24.00;55.90
32753;DHT22;19121;52.428;10.816;2023-07-31T06:33:04;24.00;55.90
32753;DHT22;19121;52.428;10.816;2023-07-31T06:35:30;24.10;55.80
32753;DHT22;19121;52.428;10.816;2023-07-31T06:37:55;24.10;56.00
32753;DHT22;19121;52.428;10.816;2023-07-31T06:40:21;24.10;55.90
32753;DHT22;19121;52.428;10.816;2023-07-31T06:42:47;24.10;56.00
32753;DHT22;19121;52.428;10.816;2023-07-31T06:45:12;24.10;56.60
32753;DHT22;19121;52.428;10.816;2023-07-31T06:47:38;24.10;56.70
32753;DHT22;19121;52.428;10.816;2023-07-31T06:50:03;24.10;56.70
32753;DHT22;19121;52.428;10.816;2023-07-31T06:52:29;24.20;56.60
32753;DHT22;19121;52.428;10.816;2023-07-31T06:55:02;24.20;56.80
32753;DHT22;19121;52.428;10.816;2023-07-31T06:57:28;24.20;56.60
32753;DHT22;19121;52.428;10.816;2023-07-31T06:59:53;24.20;56.40
32753;DHT22;19121;52.428;10.816;2023-07-31T07:02:19;24.20;56.60
32753;DHT22;19121;52.428;10.816;2023-07-31T07:04:44;24.30;56.70
32753;DHT22;19121;52.428;10.816;2023-07-31T07:07:10;24.30;56.70
32753;DHT22;19121;52.428;10.816;2023-07-31T07:09:35;24.30;56.70
32753;DHT22;19121;52.428;10.816;2023-07-31T07:12:00;24.30;56.70
32753;DHT22;19121;52.428;10.816;2023-07-31T07:14:26;24.30;56.60
32753;DHT22;19121;52.428;10.816;2023-07-31T07:16:51;24.30;56.50
32753;DHT22;19121;52.428;10.816;2023-07-31T07:19:17;24.40;56.60
32753;DHT22;19121;52.428;10.816;2023-07-31T07:21:42;24.40;56.70
32753;DHT22;19121;52.428;10.816;2023-07-31T07:24:08;24.30;56.60
32753;DHT22;19121;52.428;10.816;2023-07-31T07:26:33;24.40;56.60
32753;DHT22;19121;52.428;10.816;2023-07-31T07:28:59;24.40;56.60
32753;DHT22;19121;52.428;10.816;2023-07-31T07:31:27;24.40;56.60
32753;DHT22;19121;52.428;10.816;2023-07-31T07:33:52;24.40;56.50
32753;DHT22;19121;52.428;10.816;2023-07-31T07:36:18;24.40;56.70
32753;DHT22;19121;52.428;10.816;2023-07-31T07:38:43;24.40;56.70
32753;DHT22;19121;52.428;10.816;2023-07-31T07:41:09;24.40;56.60
32753;DHT22;19121;52.428;10.816;2023-07-31T07:43:34;24.40;56.50
32753;DHT22;19121;52.428;10.816;2023-07-31T07:45:59;24.40;56.60
32753;DHT22;19121;52.428;10.816;2023-07-31T07:48:25;24.40;56.70
32753;DHT22;19121;52.428;10.816;2023-07-31T07:50:50;24.40;56.70
32753;DHT22;19121;52.428;10.816;2023-07-31T07:53:16;24.40;56.80
32753;DHT22;19121;52.428;10.816;2023-07-31T07:55:41;24.40;56.80
32753;DHT22;19121;52.428;10.816;2023-07-31T07:58:07;24.40;56.80
32753;DHT22;19121;52.428;10.816;2023-07-31T08:00:33;24.40;56.90
32753;DHT22;19121;52.428;10.816;2023-07-31T08:02:58;24.40;56.90
32753;DHT22;19121;52.428;10.816;2023-07-31T08:05:24;24.40;56.90
32753;DHT22;19121;52.428;10.816;2023-07-31T08:07:49;24.40;56.90
32753;DHT22;19121;52.428;10.816;2023-07-31T08:10:15;24.40;56.80
32753;DHT22;19121;52.428;10.816;2023-07-31T08:12:40;24.40;56.70
32753;DHT22;19121;52.428;10.816;2023-07-31T08:15:06;24.50;56.90
32753;DHT22;19121;52.428;10.816;2023-07-31T08:17:31;24.50;56.90
32753;DHT22;19121;52.428;10.816;2023-07-31T08:19:57;24.50;56.80
32753;DHT22;19121;52.428;10.816;2023-07-31T08:22:23;24.50;56.80
32753;DHT22;19121;52.428;10.816;2023-07-31T08:24:49;24.50;56.70
32753;DHT22;19121;52.428;10.816;2023-07-31T08:27:14;24.60;56.70
32753;DHT22;19121;52.428;10.816;2023-07-31T08:29:40;24.60;56.40
32753;DHT22;19121;52.428;10.816;2023-07-31T08:32:05;24.70;56.00
32753;DHT22;19121;52.428;10.816;2023-07-31T08:34:31;24.70;55.80
32753;DHT22;19121;52.428;10.816;2023-07-31T08:36:56;24.80;56.00
32753;DHT22;19121;52.428;10.816;2023-07-31T08:39:21;24.80;56.00
32753;DHT22;19121;52.428;10.816;2023-07-31T08:41:47;24.90;56.00
32753;DHT22;19121;52.428;10.816;2023-07-31T08:44:13;24.90;55.90
32753;DHT22;19121;52.428;10.816;2023-07-31T08:46:39;24.90;55.90
32753;DHT22;19121;52.428;10.816;2023-07-31T08:49:05;24.90;55.90
32753;DHT22;19121;52.428;10.816;2023-07-31T08:51:34;24.90;55.90
32753;DHT22;19121;52.428;10.816;2023-07-31T08:54:00;24.90;56.00
32753;DHT22;19121;52.428;10.816;2023-07-31T08:56:26;24.90;56.10
32753;DHT22;19121;52.428;10.816;2023-07-31T08:58:52;24.90;56.10
32753;DHT22;19121;52.428;10.816;2023-07-31T09:01:18;24.90;56.00
32753;DHT22;19121;52.428;10.816;2023-07-31T09:03:44;24.90;55.90
32753;DHT22;19121;52.428;10.816;2023-07-31T09:06:10;25.00;55.90
32753;DHT22;19121;52.428;10.816;2023-07-31T09:08:37;24.90;55.90
32753;DHT22;19121;52.428;10.816;2023-07-31T09:11:03;25.00;56.00
32753;DHT22;19121;52.428;10.816;2023-07-31T09:13:30;24.90;55.90
32753;DHT22;19121;52.428;10.816;2023-07-31T09:15:56;24.90;55.90
32753;DHT22;19121;52.428;10.816;2023-07-31T09:18:21;24.90;55.90
32753;DHT22;19121;52.428;10.816;2023-07-31T09:21:00;24.90;56.00
32753;DHT22;19121;52.428;10.816;2023-07-31T09:23:27;24.90;56.00
32753;DHT22;19121;52.428;10.816;2023-07-31T09:26:04;24.90;55.90
32753;DHT22;19121;52.428;10.816;2023-07-31T09:28:31;24.90;56.00
32753;DHT22;19121;52.428;10.816;2023-07-31T09:30:56;24.90;55.90
32753;DHT22;19121;52.428;10.816;2023-07-31T09:33:22;24.90;55.70
32753;DHT22;19121;52.428;10.816;2023-07-31T09:35:47;24.90;55.90
32753;DHT22;19121;52.428;10.816;2023-07-31T09:38:16;24.80;56.00
32753;DHT22;19121;52.428;10.816;2023-07-31T09:40:45;24.80;56.10
32753;DHT22;19121;52.428;10.816;2023-07-31T09:43:17;24.80;56.10
32753;DHT22;19121;52.428;10.816;2023-07-31T09:45:43;24.80;56.20
32753;DHT22;19121;52.428;10.816;2023-07-31T09:48:13;24.80;56.20
32753;DHT22;19121;52.428;10.816;2023-07-31T09:50:42;24.80;56.20
32753;DHT22;19121;52.428;10.816;2023-07-31T09:53:07;24.70;56.20
32753;DHT22;19121;52.428;10.816;2023-07-31T09:55:34;24.80;56.20
32753;DHT22;19121;52.428;10.816;2023-07-31T09:58:00;24.70;56.00
32753;DHT22;19121;52.428;10.816;2023-07-31T10:00:27;24.70;55.80
32753;DHT22;19121;52.428;10.816;2023-07-31T10:02:53;24.70;55.80
32753;DHT22;19121;52.428;10.816;2023-07-31T10:05:19;24.70;55.80
32753;DHT22;19121;52.428;10.816;2023-07-31T10:07:54;24.70;55.80
32753;DHT22;19121;52.428;10.816;2023-07-31T10:10:20;24.70;56.10
32753;DHT22;19121;52.428;10.816;2023-07-31T10:12:47;24.70;56.20
32753;DHT22;19121;52.428;10.816;2023-07-31T10:15:13;24.70;56.10
32753;DHT22;19121;52.428;10.816;2023-07-31T10:17:39;24.60;56.00
32753;DHT22;19121;52.428;10.816;2023-07-31T10:20:05;24.60;56.00
32753;DHT22;19121;52.428;10.816;2023-07-31T10:22:31;24.60;56.10
32753;DHT22;19121;52.428;10.816;2023-07-31T10:24:58;24.60;56.20
32753;DHT22;19121;52.428;10.816;2023-07-31T10:27:23;24.60;56.10
32753;DHT22;19121;52.428;10.816;2023-07-31T10:29:49;24.60;56.20
32753;DHT22;19121;52.428;10.816;2023-07-31T10:32:15;24.60;56.20
32753;DHT22;19121;52.428;10.816;2023-07-31T10:34:42;24.60;56.40
32753;DHT22;19121;52.428;10.816;2023-07-31T10:37:24;24.60;56.40
32753;DHT22;19121;52.428;10.816;2023-07-31T10:40:00;24.60;56.40
32753;DHT22;19121;52.428;10.816;2023-07-31T10:42:32;24.60;56.40
32753;DHT22;19121;52.428;10.816;2023-07-31T10:45:00;24.60;56.50
32753;DHT22;19121;52.428;10.816;2023-07-31T10:47:25;24.60;56.50
32753;DHT22;19121;52.428;10.816;2023-07-31T10:49:51;24.70;56.60
32753;DHT22;19121;52.428;10.816;2023-07-31T10:52:20;24.60;56.60
32753;DHT22;19121;52.428;10.816;2023-07-31T10:54:49;24.60;56.60
32753;DHT22;19121;52.428;10.816;2023-07-31T10:57:18;24.70;56.60
32753;DHT22;19121;52.428;10.816;2023-07-31T10:59:44;24.70;56.50
32753;DHT22;19121;52.428;10.816;2023-07-31T11:02:09;24.70;56.50
32753;DHT22;19121;52.428;10.816;2023-07-31T11:05:05;24.70;56.50
32753;DHT22;19121;52.428;10.816;2023-07-31T11:07:46;24.70;56.40
32753;DHT22;19121;52.428;10.816;2023-07-31T11:10:11;24.80;56.40
32753;DHT22;19121;52.428;10.816;2023-07-31T11:12:37;24.80;56.40
32753;DHT22;19121;52.428;10.816;2023-07-31T11:15:03;24.80;56.50
32753;DHT22;19121;52.428;10.816;2023-07-31T11:17:28;24.80;56.30
32753;DHT22;19121;52.428;10.816;2023-07-31T11:19:54;24.80;56.50
32753;DHT22;19121;52.428;10.816;2023-07-31T11:22:20;24.80;57.30
32753;DHT22;19121;52.428;10.816;2023-07-31T11:24:45;24.80;57.50
32753;DHT22;19121;52.428;10.816;2023-07-31T11:27:11;24.80;58.00
32753;DHT22;19121;52.428;10.816;2023-07-31T11:29:37;24.90;57.90
32753;DHT22;19121;52.428;10.816;2023-07-31T11:32:02;24.90;57.40
32753;DHT22;19121;52.428;10.816;2023-07-31T11:34:28;24.90;57.50
32753;DHT22;19121;52.428;10.816;2023-07-31T11:36:54;24.90;57.50
32753;DHT22;19121;52.428;10.816;2023-07-31T11:39:20;24.90;57.40
32753;DHT22;19121;52.428;10.816;2023-07-31T11:41:46;24.90;57.30
32753;DHT22;19121;52.428;10.816;2023-07-31T11:44:11;25.00;57.20
32753;DHT22;19121;52.428;10.816;2023-07-31T11:46:36;25.00;57.00
32753;DHT22;19121;52.428;10.816;2023-07-31T11:49:02;25.00;56.90
32753;DHT22;19121;52.428;10.816;2023-07-31T11:51:28;25.10;56.80
32753;DHT22;19121;52.428;10.816;2023-07-31T11:53:56;25.10;56.80
32753;DHT22;19121;52.428;10.816;2023-07-31T11:56:23;25.10;57.00
32753;DHT22;19121;52.428;10.816;2023-07-31T11:58:50;25.10;56.90
32753;DHT22;19121;52.428;10.816;2023-07-31T12:01:18;25.10;57.00
32753;DHT22;19121;52.428;10.816;2023-07-31T12:03:44;25.10;57.10
32753;DHT22;19121;52.428;10.816;2023-07-31T12:06:09;25.20;57.10
32753;DHT22;19121;52.428;10.816;2023-07-31T12:08:36;25.10;56.90
32753;DHT22;19121;52.428;10.816;2023-07-31T12:11:02;25.20;56.90
32753;DHT22;19121;52.428;10.816;2023-07-31T12:13:28;25.20;56.80
32753;DHT22;19121;52.428;10.816;2023-07-31T12:15:56;25.10;56.80
32753;DHT22;19121;52.428;10.816;2023-07-31T12:18:23;25.20;56.80
32753;DHT22;19121;52.428;10.816;2023-07-31T12:20:53;25.10;56.80
32753;DHT22;19121;52.428;10.816;2023-07-31T12:23:20;25.20;57.00
32753;DHT22;19121;52.428;10.816;2023-07-31T12:26:10;25.20;57.00
32753;DHT22;19121;52.428;10.816;2023-07-31T12:28:43;25.20;57.00
32753;DHT22;19121;52.428;10.816;2023-07-31T12:31:09;25.20;56.90
32753;DHT22;19121;52.428;10.816;2023-07-31T12:33:35;25.10;56.90
32753;DHT22;19121;52.428;10.816;2023-07-31T12:36:06;25.10;56.80
32753;DHT22;19121;52.428;10.816;2023-07-31T12:38:32;25.20;56.70
32753;DHT22;19121;52.428;10.816;2023-07-31T12:40:58;25.10;56.10
32753;DHT22;19121;52.428;10.816;2023-07-31T12:43:23;25.10;56.40
32753;DHT22;19121;52.428;10.816;2023-07-31T12:45:49;25.10;56.70
32753;DHT22;19121;52.428;10.816;2023-07-31T12:48:14;25.00;56.60
32753;DHT22;19121;52.428;10.816;2023-07-31T12:50:40;24.90;56.80
32753;DHT22;19121;52.428;10.816;2023-07-31T12:53:05;24.80;56.90
32753;DHT22;19121;52.428;10.816;2023-07-31T12:55:31;24.80;57.10
32753;DHT22;19121;52.428;10.816;2023-07-31T12:57:58;24.90;57.00
32753;DHT22;19121;52.428;10.816;2023-07-31T13:00:23;24.80;56.90
32753;DHT22;19121;52.428;10.816;2023-07-31T13:02:48;24.80;56.90
32753;DHT22;19121;52.428;10.816;2023-07-31T13:05:14;24.80;57.20
32753;DHT22;19121;52.428;10.816;2023-07-31T13:07:40;24.80;57.20
32753;DHT22;19121;52.428;10.816;2023-07-31T13:10:06;24.80;57.30
32753;DHT22;19121;52.428;10.816;2023-07-31T13:12:31;24.70;57.10
32753;DHT22;19121;52.428;10.816;2023-07-31T13:14:57;24.60;57.60
32753;DHT22;19121;52.428;10.816;2023-07-31T13:17:23;24.60;58.30
32753;DHT22;19121;52.428;10.816;2023-07-31T13:19:48;24.50;58.50
32753;DHT22;19121;52.428;10.816;2023-07-31T13:22:13;24.50;58.30
32753;DHT22;19121;52.428;10.816;2023-07-31T13:24:39;24.50;58.60
32753;DHT22;19121;52.428;10.816;2023-07-31T13:27:04;24.50;58.20
32753;DHT22;19121;52.428;10.816;2023-07-31T13:29:30;24.50;58.40
32753;DHT22;19121;52.428;10.816;2023-07-31T13:31:55;24.40;58.40
32753;DHT22;19121;52.428;10.816;2023-07-31T13:34:21;24.40;58.70
32753;DHT22;19121;52.428;10.816;2023-07-31T13:36:46;24.40;58.60
32753;DHT22;19121;52.428;10.816;2023-07-31T13:39:12;24.40;58.90
32753;DHT22;19121;52.428;10.816;2023-07-31T13:41:37;24.40;59.30
32753;DHT22;19121;52.428;10.816;2023-07-31T13:44:03;24.30;60.20
32753;DHT22;19121;52.428;10.816;2023-07-31T13:46:28;24.20;61.10
32753;DHT22;19121;52.428;10.816;2023-07-31T13:48:54;24.20;61.10
32753;DHT22;19121;52.428;10.816;2023-07-31T13:51:23;24.20;61.90
32753;DHT22;19121;52.428;10.816;2023-07-31T13:53:49;24.10;61.80
32753;DHT22;19121;52.428;10.816;2023-07-31T13:56:14;24.10;61.60
32753;DHT22;19121;52.428;10.816;2023-07-31T13:58:40;24.10;61.50
32753;DHT22;19121;52.428;10.816;2023-07-31T14:01:05;24.10;61.60
32753;DHT22;19121;52.428;10.816;2023-07-31T14:03:31;24.00;61.50
32753;DHT22;19121;52.428;10.816;2023-07-31T14:05:56;24.10;61.40
32753;DHT22;19121;52.428;10.816;2023-07-31T14:08:21;24.10;61.40
32753;DHT22;19121;52.428;10.816;2023-07-31T14:10:47;24.10;61.70
32753;DHT22;19121;52.428;10.816;2023-07-31T14:13:12;24.10;61.50
32753;DHT22;19121;52.428;10.816;2023-07-31T14:15:39;24.10;61.90
32753;DHT22;19121;52.428;10.816;2023-07-31T14:18:04;24.00;62.00
32753;DHT22;19121;52.428;10.816;2023-07-31T14:20:30;24.00;62.10
32753;DHT22;19121;52.428;10.816;2023-07-31T14:22:55;23.90;61.80
32753;DHT22;19121;52.428;10.816;2023-07-31T14:25:20;24.00;61.50
32753;DHT22;19121;52.428;10.816;2023-07-31T14:27:46;24.00;61.50
32753;DHT22;19121;52.428;10.816;2023-07-31T14:30:11;24.00;61.80
32753;DHT22;19121;52.428;10.816;2023-07-31T14:32:37;24.00;61.80
32753;DHT22;19121;52.428;10.816;2023-07-31T14:35:03;24.00;61.60
32753;DHT22;19121;52.428;10.816;2023-07-31T14:37:36;24.00;61.50
32753;DHT22;19121;52.428;10.816;2023-07-31T14:40:01;24.00;61.30
32753;DHT22;19121;52.428;10.816;2023-07-31T14:42:27;23.90;61.20
32753;DHT22;19121;52.428;10.816;2023-07-31T14:44:52;24.00;61.30
32753;DHT22;19121;52.428;10.816;2023-07-31T14:47:18;24.00;60.90
32753;DHT22;19121;52.428;10.816;2023-07-31T14:49:43;24.10;60.40
32753;DHT22;19121;52.428;10.816;2023-07-31T14:52:08;24.10;60.50
32753;DHT22;19121;52.428;10.816;2023-07-31T14:54:34;24.10;60.30
32753;DHT22;19121;52.428;10.816;2023-07-31T14:56:59;24.10;60.30
32753;DHT22;19121;52.428;10.816;2023-07-31T14:59:25;24.10;60.10
32753;DHT22;19121;52.428;10.816;2023-07-31T15:01:52;24.20;59.90
32753;DHT22;19121;52.428;10.816;2023-07-31T15:04:17;24.20;59.90
32753;DHT22;19121;52.428;10.816;2023-07-31T15:06:42;24.20;59.90
32753;DHT22;19121;52.428;10.816;2023-07-31T15:09:08;24.20;60.10
32753;DHT22;19121;52.428;10.816;2023-07-31T15:11:33;24.10;59.80